Time;durP1;ratioP1;P1;durP2;ratioP2;P2;SDS_P1;SDS_P2;PMS_P1;PMS_P2;Temp;Humidity;BMP_temperature;BMP_pressure;BME280_temperature;BME280_humidity;BME280_pressure;Samples;Min_cycle;Max_cycle;Signal;HPM_P1;HPM_P2
2023/03/05 07:01:09;;;;;;;9.13;6.50;;;;;;;-145.79;75.26;79075.47;5322096;27;20392;-73
2023/03/05 07:03:41;;;;;;;10.18;6.43;;;;;;;-145.79;75.33;79069.09;5316140;28;20059;-73
2023/03/05 07:06:14;;;;;;;10.23;6.38;;;;;;;-145.79;75.77;79094.53;5320440;28;20036;-73
2023/03/05 07:08:46;;;;;;;7.40;5.93;;;;;;;-145.79;75.49;79094.53;5300465;28;20062;-74
2023/03/05 07:11:19;;;;;;;6.28;5.05;;;;;;;-145.79;75.98;79096.66;5307798;28;20032;-74
2023/03/05 07:13:50;;;;;;;7.90;4.90;;;;;;;-145.79;76.00;79081.81;5301218;28;20021;-74
2023/03/05 07:16:28;;;;;;;8.07;5.10;;;;;;;-145.79;75.97;79073.34;5300178;28;20517;-74
2023/03/05 07:19:05;;;;;;;8.70;4.78;;;;;;;-145.79;75.95;79060.63;5300884;28;20482;-73
2023/03/05 07:21:36;;;;;;;12.20;4.72;;;;;;;-145.79;75.59;79047.91;5302259;28;20028;-74
2023/03/05 07:24:08;;;;;;;6.57;5.03;;;;;;;-145.79;75.91;79033.06;5304473;28;20030;-74
2023/03/05 07:26:39;;;;;;;8.80;4.82;;;;;;;-145.79;75.38;79022.44;5307111;28;20095;-74
2023/03/05 07:29:10;;;;;;;6.85;4.50;;;;;;;-145.79;74.86;79026.69;5320933;28;20035;-74
2023/03/05 07:31:42;;;;;;;6.05;4.28;;;;;;;-145.79;74.93;79018.19;5301752;28;20482;-74
2023/03/05 07:34:13;;;;;;;6.38;3.50;;;;;;;-145.79;75.10;79005.47;5300696;28;20048;-74
2023/03/05 07:36:45;;;;;;;8.45;4.50;;;;;;;-145.79;75.01;79003.34;5299991;28;20121;-75
2023/03/05 07:39:19;;;;;;;6.88;3.92;;;;;;;-145.79;74.98;79016.09;5304175;28;20039;-75
2023/03/05 07:41:53;;;;;;;7.50;4.93;;;;;;;-145.79;74.98;79013.97;5300572;28;20025;-75
2023/03/05 07:44:25;;;;;;;7.72;4.03;;;;;;;-145.79;74.73;79013.97;5301377;28;20390;-75
2023/03/05 07:46:56;;;;;;;7.78;4.30;;;;;;;-145.79;74.55;79020.31;5300276;28;20020;-74
2023/03/05 07:49:28;;;;;;;4.82;3.50;;;;;;;-145.79;74.65;79039.41;5300092;28;20105;-74
2023/03/05 07:51:59;;;;;;;4.97;3.97;;;;;;;-145.79;74.86;79035.16;5299131;28;20505;-74
2023/03/05 07:54:30;;;;;;;7.63;3.10;;;;;;;-145.79;75.31;79026.69;5300146;28;20028;-74
2023/03/05 07:57:06;;;;;;;5.72;3.00;;;;;;;-145.79;75.43;79026.69;5300783;28;20465;-74
2023/03/05 07:59:38;;;;;;;4.22;3.05;;;;;;;-145.79;75.45;79041.53;5299145;28;20043;-74
2023/03/05 08:02:13;;;;;;;8.15;4.10;;;;;;;-145.79;75.65;79030.94;5306837;28;20157;-75
2023/03/05 08:04:51;;;;;;;6.07;3.60;;;;;;;-145.79;75.93;79033.06;5307575;28;20527;-74
2023/03/05 08:07:22;;;;;;;6.18;3.28;;;;;;;-145.79;76.34;79016.09;5316032;27;20028;-75
2023/03/05 08:09:53;;;;;;;6.18;3.20;;;;;;;-145.79;75.71;78997.00;5313806;28;20459;-74
2023/03/05 08:12:25;;;;;;;9.38;4.00;;;;;;;-145.79;75.09;78990.63;5294562;28;20028;-74
2023/03/05 08:14:56;;;;;;;6.63;3.33;;;;;;;-145.79;75.32;78990.63;5285665;28;20095;-76
2023/03/05 08:17:28;;;;;;;4.10;3.60;;;;;;;-145.79;75.06;78984.28;5286148;28;20506;-73
2023/03/05 08:20:03;;;;;;;5.85;3.45;;;;;;;-145.79;74.35;78984.28;5288726;28;20032;-73
2023/03/05 08:22:38;;;;;;;7.45;4.65;;;;;;;-145.79;75.17;78984.28;5306497;28;20020;-74
2023/03/05 08:25:10;;;;;;;5.45;3.45;;;;;;;-145.79;74.51;78975.78;5306759;28;20095;-74
2023/03/05 08:27:43;;;;;;;5.93;3.00;;;;;;;-145.79;74.36;78988.53;5305622;28;20027;-74
2023/03/05 08:30:20;;;;;;;6.38;2.78;;;;;;;-145.79;74.63;78980.03;5293990;28;20096;-74
2023/03/05 08:32:53;;;;;;;3.90;2.80;;;;;;;-145.79;74.48;78969.44;5284424;28;20020;-74
2023/03/05 08:35:24;;;;;;;6.05;2.80;;;;;;;-145.79;73.60;78965.19;5296001;28;20020;-75
2023/03/05 08:37:55;;;;;;;5.70;3.17;;;;;;;-145.79;73.26;78952.47;5293814;28;20044;-75
2023/03/05 08:40:26;;;;;;;5.82;2.70;;;;;;;-145.79;73.64;78967.31;5284782;28;20059;-74
2023/03/05 08:43:01;;;;;;;3.50;2.72;;;;;;;-145.79;74.17;78963.06;5285351;28;20021;-74
2023/03/05 08:45:32;;;;;;;7.80;2.97;;;;;;;-145.79;73.84;78946.09;5294308;28;20032;-74
2023/03/05 08:48:03;;;;;;;4.07;2.70;;;;;;;-145.79;73.64;78946.09;5304314;28;20020;-75
2023/03/05 08:50:35;;;;;;;4.47;2.80;;;;;;;-145.79;73.34;78929.16;5287764;28;20041;-75
2023/03/05 08:53:07;;;;;;;6.10;2.55;;;;;;;-145.79;73.26;78931.25;5285732;28;20024;-75
2023/03/05 08:55:38;;;;;;;3.45;3.13;;;;;;;-145.79;73.35;78929.16;5292277;28;20017;-75
2023/03/05 08:58:10;;;;;;;3.65;2.60;;;;;;;-145.79;73.18;78954.59;5304552;28;20375;-74
2023/03/05 09:00:41;;;;;;;6.72;3.72;;;;;;;-145.79;73.10;78958.84;5316953;28;20048;-75
2023/03/05 09:03:12;;;;;;;4.47;2.90;;;;;;;-145.79;73.58;78946.09;5310091;28;20020;-74
2023/03/05 09:05:44;;;;;;;4.15;2.50;;;;;;;-145.79;72.93;78946.09;5315770;28;20024;-75
2023/03/05 09:08:15;;;;;;;2.78;2.28;;;;;;;-145.79;72.98;78931.25;5320256;28;20051;-76
2023/03/05 09:10:47;;;;;;;2.75;2.15;;;;;;;-145.79;73.10;78912.19;5284361;28;20028;-75
2023/03/05 09:13:18;;;;;;;5.60;2.17;;;;;;;-145.79;72.06;78920.66;5296339;28;20046;-75
2023/03/05 09:15:57;;;;;;;3.85;2.30;;;;;;;-145.79;71.65;78910.06;5302216;28;20078;-74
2023/03/05 09:18:29;;;;;;;3.72;2.42;;;;;;;-145.79;71.63;78927.03;5282539;28;20139;-76
2023/03/05 09:21:09;;;;;;;4.45;2.50;;;;;;;-145.79;71.73;78920.66;5284851;28;20020;-75
2023/03/05 09:23:43;;;;;;;2.42;2.03;;;;;;;-145.79;71.00;78948.22;5282755;28;20056;-75
2023/03/05 09:26:18;;;;;;;4.43;1.90;;;;;;;-145.79;71.96;78958.84;5293604;28;20542;-74
2023/03/05 09:28:49;;;;;;;3.20;1.90;;;;;;;-145.79;72.62;78931.25;5304171;28;20406;-75
2023/03/05 09:31:21;;;;;;;2.70;2.30;;;;;;;-145.79;72.27;78920.66;5304364;28;20024;-74
2023/03/05 09:33:53;;;;;;;3.92;2.67;;;;;;;-145.79;72.24;78910.06;5301619;28;20135;-75
2023/03/05 09:36:28;;;;;;;4.63;2.67;;;;;;;-145.79;72.52;78899.47;5299044;28;20091;-76
2023/03/05 09:38:59;;;;;;;3.08;2.28;;;;;;;-145.79;70.98;78895.22;5284289;28;20025;-74
2023/03/05 09:41:52;;;;;;;3.38;2.50;;;;;;;-145.79;70.91;78882.50;5305116;28;20069;-72
2023/03/05 09:44:42;;;;;;;3.80;2.83;;;;;;;-145.79;71.07;78890.97;5284651;28;20103;-72
2023/03/05 09:47:27;;;;;;;3.13;2.75;;;;;;;-145.79;70.52;78899.47;5284398;28;20039;-73
2023/03/05 09:49:58;;;;;;;3.88;2.50;;;;;;;-145.79;70.33;78880.38;5283599;28;20406;-71
2023/03/05 09:52:49;;;;;;;3.22;2.92;;;;;;;-145.79;69.09;78874.00;5283915;28;20036;-71
2023/03/05 09:55:30;;;;;;;5.90;3.97;;;;;;;-145.79;69.42;78865.53;5291911;28;20387;-70
2023/03/05 09:58:06;;;;;;;4.22;3.33;;;;;;;-145.79;69.35;78848.56;5318868;28;20028;-70
2023/03/05 10:00:44;;;;;;;3.60;3.30;;;;;;;-145.79;68.85;78863.41;5298910;28;20068;-72
2023/03/05 10:03:25;;;;;;;6.57;3.72;;;;;;;-145.79;68.84;78857.06;5304564;28;20024;-71
2023/03/05 10:06:06;;;;;;;4.60;3.30;;;;;;;-145.79;68.77;78857.06;5303080;28;20060;-71
2023/03/05 10:08:45;;;;;;;5.95;3.20;;;;;;;-145.79;68.12;78861.28;5303415;28;20035;-72
2023/03/05 10:11:23;;;;;;;5.28;3.85;;;;;;;-145.79;67.49;78852.81;5300773;28;20042;-72
2023/03/05 10:13:55;;;;;;;3.42;2.40;;;;;;;-145.79;66.97;78861.28;5283577;28;20094;-71
2023/03/05 10:16:35;;;;;;;3.67;2.63;;;;;;;-145.79;67.10;78859.16;5283847;28;20023;-72
2023/03/05 10:19:11;;;;;;;3.10;2.58;;;;;;;-145.79;66.66;78846.44;5282281;28;20025;-72
2023/03/05 10:22:02;;;;;;;3.00;2.70;;;;;;;-145.79;66.65;78840.09;5283246;28;20029;-71
2023/03/05 10:24:46;;;;;;;5.95;2.85;;;;;;;-145.79;66.39;78825.25;5286682;28;20106;-73
2023/03/05 10:27:42;;;;;;;6.90;4.13;;;;;;;-145.79;66.31;78825.25;5297671;28;20024;-72
2023/03/05 10:30:29;;;;;;;4.55;4.05;;;;;;;-145.79;66.40;78808.28;5297669;28;20029;-72
2023/03/05 10:33:28;;;;;;;5.00;3.67;;;;;;;-145.79;66.15;78797.69;5282415;28;20024;-72
2023/03/05 10:36:17;;;;;;;5.35;4.78;;;;;;;-145.79;65.71;78804.03;5283512;28;20028;-72
2023/03/05 10:39:26;;;;;;;24.50;15.88;;;;;;;-145.79;65.91;78801.91;5282771;28;20039;-72
2023/03/05 10:42:31;;;;;;;5.63;4.15;;;;;;;-145.79;65.81;78799.81;5283273;28;20024;-72
2023/03/05 10:45:31;;;;;;;6.00;3.25;;;;;;;-145.79;66.43;78810.41;5283141;28;20029;-73
2023/03/05 10:48:11;;;;;;;5.05;2.90;;;;;;;-145.79;69.79;78867.66;5282253;28;20032;-73
2023/03/05 10:50:50;;;;;;;4.22;1.92;;;;;;;-145.79;70.98;78924.91;5287641;28;20024;-73
2023/03/05 10:53:27;;;;;;;4.93;2.17;;;;;;;-145.79;73.21;78954.59;5302901;28;20032;-73
2023/03/05 10:56:04;;;;;;;3.65;2.13;;;;;;;-145.79;74.52;78935.50;5284406;28;20028;-72
2023/03/05 10:58:35;;;;;;;3.40;1.85;;;;;;;-145.79;75.48;78933.38;5283039;28;20025;-73
2023/03/05 11:01:09;;;;;;;36.88;25.42;;;;;;;-145.79;75.71;78905.81;5281408;28;20105;-74
2023/03/05 11:03:56;;;;;;;3.10;2.35;;;;;;;-145.79;76.28;78871.91;5282697;28;20028;-74
2023/03/05 11:06:27;;;;;;;2.40;2.00;;;;;;;-145.79;74.97;78861.28;5291947;28;20058;-75
2023/03/05 11:09:33;;;;;;;2.60;1.50;;;;;;;-145.79;72.66;78825.25;5282433;28;20020;-74
2023/03/05 11:12:22;;;;;;;4.55;1.83;;;;;;;-145.79;72.52;78793.44;5281239;28;20039;-73
2023/03/05 11:15:08;;;;;;;1.80;1.60;;;;;;;-145.79;72.23;78795.56;5280419;28;20104;-74
2023/03/05 11:17:47;;;;;;;4.88;3.33;;;;;;;-145.79;70.90;78816.75;5288433;28;20497;-74
2023/03/05 11:20:18;;;;;;;2.90;1.90;;;;;;;-145.79;70.99;78810.41;5300300;28;20032;-73
2023/03/05 11:23:16;;;;;;;4.15;1.80;;;;;;;-145.79;71.94;78804.03;5287190;28;20028;-73
2023/03/05 11:25:50;;;;;;;3.63;1.40;;;;;;;-145.79;71.76;78787.06;5294304;28;20096;-73
2023/03/05 11:28:55;;;;;;;3.20;1.60;;;;;;;-145.79;72.29;78768.00;5301640;28;20048;-73
2023/03/05 11:31:29;;;;;;;8.32;2.38;;;;;;;-145.79;71.02;78774.34;5298215;28;20047;-74
2023/03/05 11:34:04;;;;;;;2.75;1.60;;;;;;;-145.79;71.53;78729.81;5295058;28;20017;-74
2023/03/05 11:36:41;;;;;;;2.83;1.93;;;;;;;-145.79;70.38;78708.63;5299736;28;20032;-73
2023/03/05 11:39:18;;;;;;;2.60;2.00;;;;;;;-145.79;69.93;78683.19;5296666;28;20293;-73
2023/03/05 11:41:52;;;;;;;21.17;14.80;;;;;;;-145.79;69.60;78661.97;5291878;28;20409;-73
2023/03/05 11:44:45;;;;;;;5.93;3.13;;;;;;;-145.79;69.22;78655.63;5297750;28;20027;-72
2023/03/05 11:47:27;;;;;;;3.88;2.10;;;;;;;-145.79;67.50;78672.56;5318387;28;20544;-72
2023/03/05 11:50:30;;;;;;;4.53;2.28;;;;;;;-145.79;65.90;78683.19;5310397;27;20032;-72
2023/03/05 11:53:10;;;;;;;1.77;1.60;;;;;;;-145.79;66.72;78666.22;5317991;28;20024;-72
2023/03/05 11:55:50;;;;;;;3.45;1.70;;;;;;;-145.79;66.31;78674.69;5313371;28;20497;-72
2023/03/05 11:58:30;;;;;;;3.63;1.75;;;;;;;-145.79;66.83;78661.97;5292726;28;20050;-72
2023/03/05 12:01:05;;;;;;;2.83;1.95;;;;;;;-145.79;65.84;78664.09;5285196;28;20072;-72
2023/03/05 12:03:37;;;;;;;4.88;1.60;;;;;;;-145.79;64.92;78676.81;5304816;28;20039;-71
2023/03/05 12:06:19;;;;;;;2.90;1.60;;;;;;;-145.79;65.88;78676.81;5323035;28;20028;-71
2023/03/05 12:08:54;;;;;;;4.22;1.83;;;;;;;-145.79;65.05;78674.69;5315093;28;20098;-70
2023/03/05 12:11:31;;;;;;;2.85;1.95;;;;;;;-145.79;65.47;78666.22;5293261;28;20039;-71
2023/03/05 12:14:13;;;;;;;4.50;4.10;;;;;;;-145.79;65.55;78645.00;5285884;28;20021;-71
2023/03/05 12:17:06;;;;;;;3.78;2.50;;;;;;;-145.79;65.98;78638.66;5298959;28;20383;-72
2023/03/05 12:20:05;;;;;;;1.50;1.40;;;;;;;-145.79;64.69;78647.13;5306173;28;20067;-72
2023/03/05 12:22:38;;;;;;;2.65;1.83;;;;;;;-145.79;65.77;78640.78;5305354;28;20028;-71
2023/03/05 12:25:45;;;;;;;6.95;4.13;;;;;;;-145.79;64.84;78657.75;5305599;28;20016;-72
2023/03/05 12:28:44;;;;;;;4.40;1.80;;;;;;;-145.79;65.62;78661.97;5306861;28;20024;-72
2023/03/05 12:31:27;;;;;;;2.08;1.65;;;;;;;-145.79;64.60;78645.00;5305745;28;20150;-71
2023/03/05 12:33:58;;;;;;;5.50;1.90;;;;;;;-145.79;65.07;78651.38;5289967;28;20025;-72
2023/03/05 12:36:34;;;;;;;2.10;1.70;;;;;;;-145.79;64.60;78632.28;5285474;28;20431;-72
2023/03/05 12:39:46;;;;;;;2.00;1.52;;;;;;;-145.79;63.72;78615.34;5284520;28;20107;-72
2023/03/05 12:42:26;;;;;;;4.95;2.10;;;;;;;-145.79;63.35;78608.97;5276356;28;20048;-72
2023/03/05 12:45:20;;;;;;;2.30;1.70;;;;;;;-145.79;64.00;78619.56;5285097;28;20039;-72
2023/03/05 12:47:55;;;;;;;2.22;1.65;;;;;;;-145.79;64.08;78621.69;5284104;28;20104;-72
2023/03/05 12:50:26;;;;;;;6.75;3.55;;;;;;;-145.79;63.73;78613.22;5285545;28;20024;-72
2023/03/05 12:53:12;;;;;;;3.50;1.80;;;;;;;-145.79;63.81;78617.44;5284409;28;20032;-72
2023/03/05 12:55:46;;;;;;;5.90;2.60;;;;;;;-145.79;63.54;78606.84;5284620;28;20037;-71
2023/03/05 12:58:26;;;;;;;4.53;2.47;;;;;;;-145.79;63.45;78589.88;5289221;28;20086;-72
2023/03/05 13:01:13;;;;;;;1.88;1.73;;;;;;;-145.79;62.19;78581.41;5304914;28;20048;-72
2023/03/05 13:03:51;;;;;;;2.72;1.88;;;;;;;-145.79;61.95;78592.00;5306044;28;20439;-72
2023/03/05 13:06:25;;;;;;;8.30;2.28;;;;;;;-145.79;62.08;78592.00;5304753;28;20028;-72
2023/03/05 13:08:58;;;;;;;1.92;1.55;;;;;;;-145.79;62.00;78575.03;5305069;28;20100;-71
2023/03/05 13:11:33;;;;;;;2.45;1.88;;;;;;;-145.79;62.60;78560.19;5303296;28;20050;-71
2023/03/05 13:14:39;;;;;;;3.27;2.00;;;;;;;-145.79;61.18;78558.09;5303313;28;20490;-72
2023/03/05 13:17:31;;;;;;;3.05;1.90;;;;;;;-145.79;61.53;78558.09;5304629;28;20321;-73
2023/03/05 13:20:27;;;;;;;2.58;1.80;;;;;;;-145.79;61.98;78517.81;5303069;28;20032;-71
2023/03/05 13:23:15;;;;;;;4.57;2.83;;;;;;;-145.79;61.11;78515.69;5293371;28;20047;-71
2023/03/05 13:26:19;;;;;;;4.88;2.45;;;;;;;-145.79;60.80;78486.00;5298387;28;20032;-72
2023/03/05 13:29:16;;;;;;;2.97;1.90;;;;;;;-145.79;59.91;78481.75;5288147;28;20036;-72
2023/03/05 13:31:54;;;;;;;4.22;2.70;;;;;;;-145.79;59.67;78454.19;5304442;28;20055;-72
2023/03/05 13:34:36;;;;;;;5.70;2.60;;;;;;;-145.79;59.37;78443.59;5300432;28;20039;-71
2023/03/05 13:37:17;;;;;;;3.00;1.63;;;;;;;-145.79;58.07;78488.13;5300895;28;20019;-71
2023/03/05 13:39:54;;;;;;;7.55;2.88;;;;;;;-145.79;57.62;78488.13;5305193;28;20124;-72
2023/03/05 13:42:31;;;;;;;4.13;2.65;;;;;;;-145.79;58.76;78477.50;5303409;28;20016;-71
2023/03/05 13:45:25;;;;;;;2.53;1.77;;;;;;;-145.79;57.85;78507.19;5301255;28;20446;-71
2023/03/05 13:47:59;;;;;;;2.70;1.80;;;;;;;-145.79;58.30;78488.13;5301466;28;20054;-71
2023/03/05 13:50:33;;;;;;;2.05;1.83;;;;;;;-145.79;57.80;78460.56;5302714;28;20112;-71
2023/03/05 13:53:27;;;;;;;3.92;1.98;;;;;;;-145.79;57.25;78449.94;5302433;28;20039;-71
2023/03/05 13:56:04;;;;;;;8.30;2.78;;;;;;;-145.79;57.48;78449.94;5302607;28;20048;-72
2023/03/05 13:58:53;;;;;;;3.42;1.83;;;;;;;-145.79;57.52;78437.22;5302437;28;20104;-73
2023/03/05 14:01:29;;;;;;;4.05;1.73;;;;;;;-145.79;57.27;78430.88;5300968;28;20080;-72
2023/03/05 14:04:12;;;;;;;2.83;1.80;;;;;;;-145.79;57.69;78449.94;5297448;28;20028;-72
2023/03/05 14:07:03;;;;;;;2.55;1.77;;;;;;;-145.79;57.94;78441.47;5300890;28;20471;-72
2023/03/05 14:09:37;;;;;;;5.00;1.95;;;;;;;-145.79;57.66;78437.22;5301552;28;20145;-71
2023/03/05 14:12:39;;;;;;;2.83;1.63;;;;;;;-145.79;57.20;78428.75;5302577;28;20033;-71
2023/03/05 14:15:30;;;;;;;2.53;1.67;;;;;;;-145.79;57.09;78462.66;5295829;28;20073;-72
2023/03/05 14:18:17;;;;;;;3.85;2.00;;;;;;;-145.79;58.00;78479.63;5299655;28;20035;-72
2023/03/05 14:21:02;;;;;;;2.75;1.83;;;;;;;-145.79;58.22;78469.03;5301583;28;20423;-71
2023/03/05 14:23:34;;;;;;;3.97;1.75;;;;;;;-145.79;58.24;78464.78;5300188;28;20375;-71
2023/03/05 14:26:26;;;;;;;4.47;1.83;;;;;;;-145.79;58.30;78443.59;5302311;28;20032;-72
2023/03/05 14:29:11;;;;;;;2.28;1.48;;;;;;;-145.79;57.39;78464.78;5302821;28;20034;-71
2023/03/05 14:32:07;;;;;;;4.95;1.75;;;;;;;-145.79;57.24;78437.22;5299017;28;20020;-71
2023/03/05 14:34:41;;;;;;;1.85;1.55;;;;;;;-145.79;57.19;78428.75;5299556;28;20050;-72
2023/03/05 14:37:43;;;;;;;4.70;1.95;;;;;;;-145.79;57.46;78411.78;5301308;28;20047;-71
2023/03/05 14:40:19;;;;;;;2.72;1.60;;;;;;;-145.79;56.81;78420.28;5299478;28;20036;-72
2023/03/05 14:43:04;;;;;;;3.85;1.63;;;;;;;-145.79;57.28;78407.53;5302084;28;20028;-71
2023/03/05 14:45:42;;;;;;;4.40;1.80;;;;;;;-145.79;57.77;78403.31;5301971;28;20063;-72
2023/03/05 14:48:17;;;;;;;11.40;5.40;;;;;;;-145.79;57.13;78409.66;5301818;28;20016;-72
2023/03/05 14:50:55;;;;;;;5.78;1.90;;;;;;;-145.79;57.63;78413.91;5302351;28;20674;-71
2023/03/05 14:53:47;;;;;;;6.93;3.15;;;;;;;-145.79;58.20;78416.03;5299953;28;20073;-71
2023/03/05 14:56:24;;;;;;;5.60;2.30;;;;;;;-145.79;58.22;78401.19;5289262;28;20047;-74
2023/03/05 14:58:56;;;;;;;5.30;2.63;;;;;;;-145.79;58.56;78386.34;5302365;28;20032;-73
2023/03/05 15:01:27;;;;;;;4.47;2.83;;;;;;;-145.79;58.30;78401.19;5297119;28;20030;-73
2023/03/05 15:03:59;;;;;;;4.40;2.15;;;;;;;-145.79;58.59;78413.91;5300042;28;20035;-73
2023/03/05 15:06:35;;;;;;;25.85;19.90;;;;;;;-145.79;59.18;78416.03;5299651;28;20327;-72
2023/03/05 15:09:06;;;;;;;3.20;2.85;;;;;;;-145.79;59.02;78407.53;5302337;28;20035;-72
2023/03/05 15:11:38;;;;;;;3.30;2.70;;;;;;;-145.79;58.58;78399.06;5305986;28;20032;-72
2023/03/05 15:14:09;;;;;;;4.03;2.80;;;;;;;-145.79;58.69;78399.06;5303901;28;20202;-73
2023/03/05 15:16:44;;;;;;;4.00;2.60;;;;;;;-145.79;58.31;78390.59;5304512;28;20062;-72
2023/03/05 15:19:15;;;;;;;4.82;3.35;;;;;;;-145.79;58.55;78386.34;5303347;28;20418;-72
2023/03/05 15:21:47;;;;;;;3.70;2.90;;;;;;;-145.79;58.35;78403.31;5306061;28;20048;-73
2023/03/05 15:24:21;;;;;;;3.88;2.70;;;;;;;-145.79;58.87;78394.81;5304607;28;20020;-73
2023/03/05 15:26:52;;;;;;;3.58;2.90;;;;;;;-145.79;58.74;78399.06;5302107;28;20378;-72
2023/03/05 15:29:24;;;;;;;11.25;8.60;;;;;;;-145.79;58.87;78401.19;5305815;28;20016;-72
2023/03/05 15:31:55;;;;;;;7.13;4.53;;;;;;;-145.79;58.97;78407.53;5303891;28;20030;-72
2023/03/05 15:34:27;;;;;;;15.73;12.32;;;;;;;-145.79;59.38;78420.28;5305687;28;20071;-72
2023/03/05 15:37:00;;;;;;;8.55;3.05;;;;;;;-145.79;59.35;78409.66;5308533;28;20146;-72
2023/03/05 15:39:32;;;;;;;4.18;3.50;;;;;;;-145.79;59.74;78384.22;5302969;28;20021;-73
2023/03/05 15:42:03;;;;;;;5.00;3.42;;;;;;;-145.79;59.54;78377.88;5308778;28;20020;-73
2023/03/05 15:44:34;;;;;;;5.47;2.78;;;;;;;-145.79;59.43;78365.16;5309260;28;20028;-72
2023/03/05 15:47:06;;;;;;;3.08;2.67;;;;;;;-145.79;59.37;78373.63;5305572;28;20467;-73
2023/03/05 15:49:37;;;;;;;3.55;2.88;;;;;;;-145.79;59.77;78365.16;5304685;28;20513;-74
2023/03/05 15:52:09;;;;;;;3.85;3.53;;;;;;;-145.79;59.84;78369.38;5303093;28;20024;-73
2023/03/05 15:54:40;;;;;;;7.07;4.78;;;;;;;-145.79;60.39;78369.38;5305165;28;20027;-73
2023/03/05 15:57:12;;;;;;;4.68;3.67;;;;;;;-145.79;60.29;78356.66;5300769;28;20086;-73
2023/03/05 15:59:43;;;;;;;6.53;3.10;;;;;;;-145.79;59.63;78369.38;5296227;28;20127;-73
2023/03/05 16:02:18;;;;;;;5.00;4.03;;;;;;;-145.79;60.35;78371.50;5323353;28;20455;-72
2023/03/05 16:04:49;;;;;;;5.78;3.15;;;;;;;-145.79;60.39;78377.88;5295148;28;20509;-73
2023/03/05 16:07:21;;;;;;;3.95;3.42;;;;;;;-145.79;60.69;78356.66;5305930;28;20104;-72
2023/03/05 16:09:54;;;;;;;5.18;3.63;;;;;;;-145.79;60.58;78377.88;5289199;28;20115;-73
2023/03/05 16:12:32;;;;;;;7.47;4.70;;;;;;;-145.79;60.78;78373.63;5301197;28;20238;-73
2023/03/05 16:15:03;;;;;;;4.22;3.92;;;;;;;-145.79;60.84;78382.09;5311353;28;20087;-72
2023/03/05 16:17:35;;;;;;;6.93;4.60;;;;;;;-145.79;60.85;78382.09;5300401;28;20111;-72
2023/03/05 16:20:08;;;;;;;4.93;4.25;;;;;;;-145.79;61.01;78379.97;5321257;28;20043;-72
2023/03/05 16:22:40;;;;;;;6.28;4.70;;;;;;;-145.79;61.23;78373.63;5304454;28;20089;-72
2023/03/05 16:25:18;;;;;;;4.97;4.47;;;;;;;-145.79;61.47;78375.75;5315538;28;20478;-71
2023/03/05 16:27:49;;;;;;;5.10;4.60;;;;;;;-145.79;61.59;78365.16;5302860;28;20029;-71
2023/03/05 16:30:20;;;;;;;4.80;4.43;;;;;;;-145.79;62.16;78356.66;5320258;28;20019;-73
2023/03/05 16:32:51;;;;;;;5.72;4.53;;;;;;;-145.79;61.92;78373.63;5301556;28;20474;-72
